createdAt,value
2023-03-24T00:00:32.725Z,5.19
2023-03-24T00:03:02.731Z,5.21
2023-03-24T00:05:30.738Z,5.38
2023-03-24T00:08:02.213Z,5.56
2023-03-24T00:10:30.875Z,5.61
2023-03-24T00:12:58.575Z,5.47
2023-03-24T00:15:26.294Z,5.51
2023-03-24T00:17:53.412Z,5.50
2023-03-24T00:20:22.634Z,5.38
2023-03-24T00:22:56.973Z,5.39
2023-03-24T00:25:34.106Z,5.27
2023-03-24T00:28:01.720Z,5.38
2023-03-24T00:30:30.377Z,5.35
2023-03-24T00:32:59.012Z,5.29
2023-03-24T00:35:26.254Z,5.28
2023-03-24T00:37:53.150Z,5.37
2023-03-24T00:40:21.968Z,5.30
2023-03-24T00:42:50.520Z,5.33
2023-03-24T00:45:23.461Z,5.24
2023-03-24T00:47:54.494Z,5.35
2023-03-24T00:50:27.587Z,5.27
2023-03-24T00:52:56.309Z,5.37
2023-03-24T00:55:23.519Z,5.27
2023-03-24T00:57:51.361Z,5.24
2023-03-24T01:00:25.278Z,5.27
2023-03-24T01:02:56.343Z,5.26
2023-03-24T01:05:31.706Z,5.20
2023-03-24T01:08:03.735Z,5.23
2023-03-24T01:10:36.011Z,5.23
2023-03-24T01:13:04.135Z,5.25
2023-03-24T01:15:33.942Z,5.22
2023-03-24T01:18:04.218Z,5.33
2023-03-24T01:20:35.608Z,5.34
2023-03-24T01:23:06.073Z,5.29
2023-03-24T01:25:36.079Z,5.26
2023-03-24T01:28:03.621Z,5.31
2023-03-24T01:30:31.623Z,5.36
2023-03-24T01:32:58.636Z,5.29
2023-03-24T01:35:28.917Z,5.29
2023-03-24T01:37:56.811Z,5.37
2023-03-24T01:40:30.972Z,5.41
2023-03-24T01:42:59.299Z,5.47
2023-03-24T01:45:55.142Z,5.52
2023-03-24T01:48:43.925Z,5.49
2023-03-24T01:51:23.456Z,5.59
2023-03-24T01:54:10.643Z,5.45
2023-03-24T01:56:45.927Z,5.47
2023-03-24T01:59:18.738Z,5.39
2023-03-24T02:02:04.460Z,5.20
2023-03-24T02:04:42.724Z,5.10
2023-03-24T02:07:20.329Z,5.13
2023-03-24T02:09:48.659Z,5.13
2023-03-24T02:12:16.458Z,4.91
2023-03-24T02:14:43.831Z,4.73
2023-03-24T02:17:34.444Z,4.67
2023-03-24T02:20:20.218Z,4.51
2023-03-24T02:22:53.356Z,4.47
2023-03-24T02:25:26.264Z,4.34
2023-03-24T02:28:02.275Z,4.31
2023-03-24T02:30:51.286Z,4.21
2023-03-24T02:33:40.196Z,4.18
2023-03-24T02:36:17.852Z,4.25
2023-03-24T02:39:18.991Z,4.00
2023-03-24T02:41:52.778Z,3.95
2023-03-24T02:44:28.485Z,3.91
2023-03-24T02:47:03.497Z,3.91
2023-03-24T02:49:52.328Z,3.91
2023-03-24T02:52:37.902Z,3.91
2023-03-24T02:55:16.553Z,4.02
2023-03-24T02:58:03.225Z,4.08
2023-03-24T03:00:49.797Z,4.00
2023-03-24T03:03:50.779Z,3.97
2023-03-24T03:06:31.319Z,3.98
2023-03-24T03:09:04.068Z,3.94
2023-03-24T03:11:31.269Z,3.79
2023-03-24T03:14:09.742Z,3.77
2023-03-24T03:16:43.503Z,3.60
2023-03-24T03:19:33.605Z,3.53
2023-03-24T03:22:04.951Z,3.48
2023-03-24T03:24:37.468Z,3.44
2023-03-24T03:27:10.528Z,3.42
2023-03-24T03:29:42.150Z,3.35
2023-03-24T03:32:14.739Z,3.31
2023-03-24T03:34:51.478Z,3.26
2023-03-24T03:37:50.487Z,3.22
2023-03-24T03:40:31.373Z,3.18
2023-03-24T03:43:06.414Z,3.17
2023-03-24T03:45:35.101Z,3.16
2023-03-24T03:48:05.070Z,3.17
2023-03-24T03:50:32.669Z,3.31
2023-03-24T03:53:06.994Z,3.35
2023-03-24T03:55:36.244Z,3.37
2023-03-24T03:58:04.854Z,3.39
2023-03-24T04:00:44.733Z,3.43
2023-03-24T04:03:58.628Z,3.50
2023-03-24T04:07:08.302Z,3.52
2023-03-24T04:09:52.509Z,3.64
2023-03-24T04:12:25.738Z,3.70
2023-03-24T04:15:30.721Z,3.75
2023-03-24T04:18:47.294Z,3.97
2023-03-24T04:21:28.485Z,4.12
2023-03-24T04:24:29.467Z,4.18
2023-03-24T04:27:09.805Z,4.38
2023-03-24T04:29:38.298Z,4.55
2023-03-24T04:32:11.350Z,4.69
2023-03-24T04:34:42.137Z,4.75
2023-03-24T04:37:33.455Z,4.91
2023-03-24T04:40:13.186Z,5.08
2023-03-24T04:42:46.500Z,5.35
2023-03-24T04:45:17.148Z,5.54
2023-03-24T04:47:53.886Z,5.89
2023-03-24T04:50:36.520Z,6.08
2023-03-24T04:53:08.573Z,6.43
2023-03-24T04:56:01.470Z,6.69
2023-03-24T04:58:47.073Z,6.97
2023-03-24T05:01:14.357Z,7.38
2023-03-24T05:03:53.396Z,7.83
2023-03-24T05:06:22.183Z,8.52
2023-03-24T05:08:49.101Z,8.67
2023-03-24T05:11:17.800Z,8.54
2023-03-24T05:13:54.061Z,9.15
2023-03-24T05:16:21.466Z,9.83
2023-03-24T05:18:58.090Z,10.00
2023-03-24T05:21:25.409Z,10.22
2023-03-24T05:23:52.575Z,10.76
2023-03-24T05:26:19.668Z,10.51
2023-03-24T05:29:01.747Z,10.21
2023-03-24T05:31:29.012Z,10.19
2023-03-24T05:34:02.760Z,8.69
2023-03-24T05:36:31.868Z,8.11
2023-03-24T05:38:59.878Z,7.53
2023-03-24T05:41:37.708Z,8.58
2023-03-24T05:44:04.736Z,9.36
2023-03-24T05:46:31.798Z,8.03
2023-03-24T05:49:00.910Z,8.29
2023-03-24T05:51:32.990Z,9.48
2023-03-24T05:54:06.327Z,8.86
2023-03-24T05:56:43.849Z,8.02
2023-03-24T05:59:13.423Z,9.82
2023-03-24T06:01:53.587Z,11.84
2023-03-24T06:04:30.674Z,11.05
2023-03-24T06:07:04.932Z,10.45
2023-03-24T06:09:40.375Z,11.56
2023-03-24T06:12:09.804Z,13.02
2023-03-24T06:14:40.716Z,12.77
2023-03-24T06:17:15.907Z,13.65
2023-03-24T06:19:50.060Z,14.57
2023-03-24T06:22:47.425Z,15.90
2023-03-24T06:25:20.433Z,16.97
2023-03-24T06:28:12.367Z,17.26
2023-03-24T06:30:43.898Z,18.13
2023-03-24T06:33:13.954Z,16.72
2023-03-24T06:35:43.502Z,15.55
2023-03-24T06:38:15.411Z,13.46
2023-03-24T06:40:44.222Z,14.55
2023-03-24T06:43:11.167Z,16.48
2023-03-24T06:45:40.240Z,17.56
2023-03-24T06:48:11.710Z,17.65
2023-03-24T06:50:41.079Z,17.76
2023-03-24T06:53:11.024Z,18.14
2023-03-24T06:55:38.700Z,19.72
2023-03-24T06:58:06.898Z,19.00
2023-03-24T07:00:57.485Z,18.82
2023-03-24T07:03:27.483Z,19.52
2023-03-24T07:06:14.378Z,19.47
2023-03-24T07:08:42.169Z,19.83
2023-03-24T07:11:10.334Z,19.97
2023-03-24T07:13:41.198Z,20.86
2023-03-24T07:16:09.129Z,21.03
2023-03-24T07:18:38.511Z,21.84
2023-03-24T07:21:07.550Z,22.34
2023-03-24T07:23:36.300Z,22.41
2023-03-24T07:40:38.565Z,21.52
2023-03-24T07:43:06.783Z,20.44
2023-03-24T07:45:44.937Z,21.66
2023-03-24T07:48:13.271Z,21.28
2023-03-24T07:50:40.459Z,20.06
2023-03-24T07:53:27.731Z,19.17
2023-03-24T07:55:54.654Z,20.36
2023-03-24T07:58:24.029Z,20.41
2023-03-24T08:01:20.027Z,20.62
2023-03-24T08:03:54.629Z,19.92
2023-03-24T08:06:43.548Z,21.06
2023-03-24T08:09:11.587Z,21.14
2023-03-24T08:11:39.584Z,22.66
2023-03-24T08:14:07.388Z,23.67
2023-03-24T08:16:34.681Z,22.43
2023-03-24T08:19:01.624Z,23.47
2023-03-24T08:21:28.480Z,23.24
2023-03-24T08:23:55.339Z,21.67
2023-03-24T08:26:22.833Z,20.39
2023-03-24T08:28:49.766Z,21.46
2023-03-24T08:31:16.794Z,22.33
2023-03-24T08:33:43.675Z,23.43
2023-03-24T08:36:10.741Z,24.81
2023-03-24T08:38:39.113Z,25.83
2023-03-24T08:41:07.585Z,25.26
2023-03-24T08:43:36.679Z,24.88
2023-03-24T08:46:07.057Z,27.05
2023-03-24T08:48:35.011Z,25.50
2023-03-24T08:51:13.557Z,26.96
2023-03-24T08:53:40.730Z,28.25
2023-03-24T08:56:08.063Z,27.59
2023-03-24T08:58:35.196Z,29.36
2023-03-24T09:01:02.895Z,29.32
2023-03-24T09:03:30.270Z,29.62
2023-03-24T09:05:57.522Z,28.96
2023-03-24T09:08:25.459Z,28.09
2023-03-24T09:10:52.937Z,27.24
2023-03-24T09:13:20.125Z,26.67
2023-03-24T09:15:57.872Z,27.84
2023-03-24T09:18:24.970Z,22.41
2023-03-24T09:20:52.451Z,19.78
2023-03-24T09:23:20.400Z,21.26
2023-03-24T09:25:52.078Z,19.94
2023-03-24T09:28:19.521Z,18.27
2023-03-24T09:30:46.888Z,21.38
2023-03-24T09:33:14.040Z,23.11
2023-03-24T09:35:41.487Z,24.41
2023-03-24T09:41:18.488Z,24.45
2023-03-24T09:44:04.010Z,23.37
2023-03-24T09:46:37.245Z,22.45
2023-03-24T09:49:05.244Z,23.59
2023-03-24T09:51:44.187Z,22.97
2023-03-24T09:54:27.365Z,24.66
2023-03-24T09:56:56.105Z,26.12
2023-03-24T09:59:32.151Z,22.04
2023-03-24T10:01:59.138Z,24.49
2023-03-24T10:04:28.089Z,26.51
2023-03-24T10:07:20.269Z,24.13
2023-03-24T10:09:53.493Z,24.89
2023-03-24T10:12:36.101Z,26.77
2023-03-24T10:15:27.193Z,27.93
2023-03-24T10:18:10.891Z,28.32
2023-03-24T10:20:46.945Z,27.61
2023-03-24T10:23:32.669Z,29.33
2023-03-24T10:26:37.083Z,30.22
2023-03-24T10:29:10.331Z,28.84
2023-03-24T10:31:39.008Z,28.68
2023-03-24T10:34:11.633Z,29.09
2023-03-24T10:36:39.726Z,28.82
2023-03-24T10:39:18.501Z,27.86
2023-03-24T10:41:49.275Z,27.23
2023-03-24T10:44:17.379Z,26.61
2023-03-24T10:46:51.808Z,26.98
2023-03-24T10:49:23.318Z,26.21
2023-03-24T10:51:52.760Z,25.41
2023-03-24T10:54:27.784Z,25.16
2023-03-24T10:56:58.158Z,24.52
2023-03-24T10:59:37.134Z,23.99
2023-03-24T11:02:10.062Z,23.68
2023-03-24T11:04:39.456Z,23.29
2023-03-24T11:07:21.118Z,22.84
2023-03-24T11:09:59.141Z,22.42
2023-03-24T11:12:34.636Z,22.39
2023-03-24T11:15:22.964Z,23.60
2023-03-24T11:17:56.933Z,24.32
2023-03-24T11:20:52.406Z,24.85
2023-03-24T11:23:39.318Z,23.66
2023-03-24T11:26:09.373Z,23.21
2023-03-24T11:28:42.696Z,22.99
2023-03-24T11:31:12.115Z,23.09
2023-03-24T11:33:47.463Z,22.00
2023-03-24T11:36:40.251Z,21.97
2023-03-24T11:39:27.331Z,20.09
2023-03-24T11:42:11.269Z,17.48
2023-03-24T11:44:38.193Z,15.85
2023-03-24T11:47:21.593Z,14.67
2023-03-24T11:49:59.249Z,13.85
2023-03-24T11:52:34.934Z,13.16
2023-03-24T11:55:18.299Z,13.06
2023-03-24T11:57:56.599Z,12.86
2023-03-24T12:00:44.085Z,12.93
2023-03-24T12:03:34.612Z,12.85
2023-03-24T12:06:15.626Z,12.45
2023-03-24T12:08:56.613Z,12.50
2023-03-24T12:12:08.041Z,12.43
2023-03-24T12:14:59.621Z,12.05
2023-03-24T12:17:34.676Z,12.13
2023-03-24T12:20:24.026Z,12.34
2023-03-24T12:23:04.752Z,12.43
2023-03-24T12:25:37.477Z,12.52
2023-03-24T12:28:10.581Z,12.67
2023-03-24T12:31:03.422Z,12.63
2023-03-24T12:33:45.973Z,12.79
2023-03-24T12:36:24.848Z,12.76
2023-03-24T12:39:00.263Z,12.73
2023-03-24T12:41:48.393Z,12.79
2023-03-24T12:44:42.685Z,12.78
2023-03-24T12:47:22.173Z,12.83
2023-03-24T12:50:11.023Z,12.66
2023-03-24T12:52:51.183Z,12.64
2023-03-24T12:55:38.340Z,12.72
2023-03-24T12:58:19.990Z,12.59
2023-03-24T13:00:59.858Z,12.72
2023-03-24T13:03:48.869Z,12.36
2023-03-24T13:06:34.744Z,12.37
2023-03-24T13:09:33.460Z,12.17
2023-03-24T13:12:11.960Z,11.83
2023-03-24T13:15:31.767Z,11.50
2023-03-24T13:18:27.853Z,11.58
2023-03-24T13:21:01.461Z,11.75
2023-03-24T13:23:37.129Z,11.76
2023-03-24T13:26:12.917Z,11.79
2023-03-24T13:29:04.580Z,11.76
2023-03-24T13:31:38.555Z,11.63
2023-03-24T13:34:21.254Z,11.66
2023-03-24T13:36:53.001Z,11.56
2023-03-24T13:39:22.790Z,11.50
2023-03-24T13:41:52.880Z,11.31
2023-03-24T13:44:23.946Z,11.30
2023-03-24T13:47:05.926Z,11.00
2023-03-24T13:49:33.388Z,10.88
2023-03-24T13:52:04.642Z,10.84
2023-03-24T13:54:32.390Z,10.75
2023-03-24T13:57:34.893Z,10.55
2023-03-24T14:00:18.553Z,10.49
2023-03-24T14:02:58.459Z,10.40
2023-03-24T14:06:02.703Z,10.47
2023-03-24T14:08:57.315Z,10.31
2023-03-24T14:11:41.469Z,10.09
2023-03-24T14:14:19.869Z,10.35
2023-03-24T14:17:06.293Z,10.12
2023-03-24T14:19:40.638Z,10.24
2023-03-24T14:22:11.384Z,10.13
2023-03-24T14:24:40.440Z,9.90
2023-03-24T14:27:53.252Z,9.70
2023-03-24T14:30:32.110Z,9.44
2023-03-24T14:33:02.269Z,9.22
2023-03-24T14:35:46.043Z,9.28
2023-03-24T14:38:16.043Z,9.19
2023-03-24T14:40:49.711Z,9.01
2023-03-24T14:43:27.410Z,8.69
2023-03-24T14:45:59.213Z,8.62
2023-03-24T14:48:38.117Z,8.57
2023-03-24T14:51:25.403Z,8.45
2023-03-24T14:53:57.051Z,8.33
2023-03-24T14:56:28.886Z,8.38
2023-03-24T14:58:59.569Z,8.41
2023-03-24T15:01:32.111Z,8.48
2023-03-24T15:04:06.056Z,8.47
2023-03-24T15:06:33.469Z,8.39
2023-03-24T15:09:07.018Z,8.44
2023-03-24T15:11:36.837Z,8.40
2023-03-24T15:14:12.635Z,8.30
2023-03-24T15:16:39.568Z,8.24
2023-03-24T15:19:18.731Z,8.39
2023-03-24T15:21:50.120Z,8.41
2023-03-24T15:24:29.846Z,8.48
2023-03-24T15:27:17.406Z,8.56
2023-03-24T15:29:46.204Z,8.63
2023-03-24T15:32:20.182Z,8.66
2023-03-24T15:34:58.960Z,8.55
2023-03-24T15:37:37.070Z,8.51
2023-03-24T15:42:46.310Z,8.52
2023-03-24T15:45:31.012Z,8.60
2023-03-24T15:48:03.141Z,8.69
2023-03-24T15:50:36.252Z,8.71
2023-03-24T15:53:15.924Z,8.59
2023-03-24T15:55:43.679Z,8.48
2023-03-24T15:58:26.507Z,8.48
2023-03-24T16:00:57.449Z,8.45
2023-03-24T16:03:28.328Z,8.41
2023-03-24T16:05:57.008Z,8.36
2023-03-24T16:08:39.300Z,8.38
2023-03-24T16:11:11.072Z,8.41
2023-03-24T16:13:42.804Z,8.40
2023-03-24T16:16:24.678Z,8.34
2023-03-24T16:18:52.330Z,8.34
2023-03-24T16:21:21.944Z,8.32
2023-03-24T16:23:51.024Z,8.39
2023-03-24T16:26:32.266Z,8.33
2023-03-24T16:29:17.280Z,8.28
2023-03-24T16:31:45.497Z,8.38
2023-03-24T16:34:12.391Z,8.22
2023-03-24T16:36:39.249Z,8.23
2023-03-24T16:39:15.941Z,8.23
2023-03-24T16:41:43.003Z,8.12
2023-03-24T16:44:10.918Z,8.14
2023-03-24T16:46:40.752Z,8.08
2023-03-24T16:49:11.623Z,8.10
2023-03-24T16:51:38.760Z,8.10
2023-03-24T16:54:05.900Z,8.12
2023-03-24T16:56:35.842Z,8.14
2023-03-24T16:59:03.801Z,8.03
2023-03-24T17:01:40.192Z,8.04
2023-03-24T17:07:09.711Z,7.99
2023-03-24T17:09:37.253Z,8.01
2023-03-24T17:12:04.647Z,8.06
2023-03-24T17:14:31.667Z,8.12
2023-03-24T17:16:59.806Z,8.09
2023-03-24T17:19:27.170Z,8.10
2023-03-24T17:22:03.480Z,8.13
2023-03-24T17:24:38.308Z,8.14
2023-03-24T17:27:18.874Z,8.10
2023-03-24T17:29:46.541Z,8.13
2023-03-24T17:32:13.440Z,8.05
2023-03-24T17:34:42.850Z,8.10
2023-03-24T17:37:09.706Z,8.02
2023-03-24T17:39:36.952Z,8.13
2023-03-24T17:42:04.337Z,8.02
2023-03-24T17:44:32.543Z,7.98
2023-03-24T17:50:15.944Z,8.04
2023-03-24T17:52:47.842Z,8.08
2023-03-24T17:55:16.436Z,8.07
2023-03-24T17:57:44.021Z,8.09
2023-03-24T18:00:14.521Z,8.07
2023-03-24T18:02:42.973Z,8.11
2023-03-24T18:05:11.858Z,8.07
2023-03-24T18:07:40.218Z,8.09
2023-03-24T18:10:08.465Z,8.04
2023-03-24T18:12:36.955Z,8.05
2023-03-24T18:15:04.987Z,8.04
2023-03-24T18:17:31.961Z,8.00
2023-03-24T18:20:06.634Z,7.96
2023-03-24T18:22:41.203Z,7.95
2023-03-24T18:25:15.500Z,7.85
2023-03-24T18:27:45.372Z,7.84
2023-03-24T18:30:13.289Z,7.83
2023-03-24T18:32:43.899Z,7.84
2023-03-24T18:35:16.527Z,7.89
2023-03-24T18:37:44.623Z,7.84
2023-03-24T18:40:12.210Z,7.79
2023-03-24T18:42:39.243Z,7.86
2023-03-24T18:45:08.457Z,7.83
2023-03-24T18:47:35.682Z,7.76
2023-03-24T18:50:02.670Z,7.74
2023-03-24T18:52:29.712Z,7.77
2023-03-24T18:54:56.823Z,7.76
2023-03-24T18:57:24.759Z,7.82
2023-03-24T18:59:51.775Z,7.81
2023-03-24T19:02:18.712Z,7.85
2023-03-24T19:04:46.359Z,7.81
2023-03-24T19:07:24.317Z,7.84
2023-03-24T19:09:52.162Z,7.76
2023-03-24T19:12:19.196Z,7.82
2023-03-24T19:14:46.464Z,7.86
2023-03-24T19:17:13.452Z,7.89
2023-03-24T19:19:42.098Z,7.78
2023-03-24T19:22:09.054Z,7.63
2023-03-24T19:24:36.224Z,7.83
2023-03-24T19:27:04.337Z,7.77
2023-03-24T19:41:45.141Z,7.26
2023-03-24T19:44:12.057Z,7.50
2023-03-24T19:46:39.330Z,7.47
2023-03-24T19:49:06.284Z,7.49
2023-03-24T19:51:33.141Z,7.59
2023-03-24T19:54:00.149Z,7.55
2023-03-24T19:56:27.192Z,7.66
2023-03-24T19:58:54.104Z,7.61
2023-03-24T20:01:23.898Z,7.66
2023-03-24T20:03:52.621Z,7.58
2023-03-24T20:06:20.035Z,7.61
2023-03-24T20:08:47.028Z,7.66
2023-03-24T20:11:15.160Z,7.67
2023-03-24T20:13:42.099Z,7.70
2023-03-24T20:16:09.120Z,7.85
2023-03-24T20:18:36.560Z,7.74
2023-03-24T20:21:03.843Z,7.75
2023-03-24T20:23:30.772Z,7.70
2023-03-24T20:26:01.597Z,7.66
2023-03-24T20:28:28.651Z,7.66
2023-03-24T20:31:02.899Z,7.65
2023-03-24T20:33:30.679Z,7.60
2023-03-24T20:35:57.967Z,7.60
2023-03-24T20:38:25.400Z,7.58
2023-03-24T20:41:05.526Z,7.59
2023-03-24T20:43:37.357Z,7.55
2023-03-24T20:46:06.366Z,7.51
2023-03-24T20:48:33.948Z,7.60
2023-03-24T20:51:02.175Z,7.60
2023-03-24T20:53:32.828Z,7.51
2023-03-24T20:56:01.314Z,7.52
2023-03-24T20:58:28.936Z,7.60
2023-03-24T21:00:56.099Z,7.57
2023-03-24T21:03:24.307Z,7.58
2023-03-24T21:05:51.865Z,7.50
2023-03-24T21:08:19.061Z,7.48
2023-03-24T21:10:46.034Z,7.56
2023-03-24T21:13:12.990Z,7.52
2023-03-24T21:15:45.423Z,7.50
2023-03-24T21:18:12.534Z,7.58
2023-03-24T21:20:40.134Z,7.51
2023-03-24T21:23:08.199Z,7.43
2023-03-24T21:25:36.659Z,7.50
2023-03-24T21:28:04.059Z,7.51
2023-03-24T21:30:31.370Z,7.52
2023-03-24T21:33:00.033Z,7.61
2023-03-24T21:35:27.021Z,7.43
2023-03-24T21:37:54.638Z,7.29
2023-03-24T21:40:24.635Z,7.44
2023-03-24T21:42:53.955Z,7.26
2023-03-24T21:45:23.728Z,7.18
2023-03-24T21:47:51.107Z,7.37
2023-03-24T21:50:23.498Z,7.32
2023-03-24T21:52:51.654Z,7.25
2023-03-24T21:55:20.638Z,7.38
2023-03-24T21:57:49.407Z,7.30
2023-03-24T22:00:22.168Z,7.25
2023-03-24T22:02:51.799Z,7.34
2023-03-24T22:05:24.372Z,7.30
2023-03-24T22:07:51.613Z,7.23
2023-03-24T22:10:22.866Z,7.37
2023-03-24T22:12:51.412Z,7.29
2023-03-24T22:15:18.892Z,7.26
2023-03-24T22:17:45.913Z,7.33
2023-03-24T22:20:13.958Z,7.26
2023-03-24T22:22:41.557Z,7.21
2023-03-24T22:25:11.297Z,7.38
2023-03-24T22:27:39.280Z,7.23
2023-03-24T22:30:08.438Z,7.11
2023-03-24T22:32:36.840Z,7.16
2023-03-24T22:35:04.813Z,7.05
2023-03-24T22:37:32.646Z,7.10
2023-03-24T22:39:59.836Z,7.16
2023-03-24T22:42:26.856Z,6.93
2023-03-24T22:44:53.891Z,7.08
2023-03-24T22:47:20.952Z,7.13
2023-03-24T22:49:48.130Z,7.07
2023-03-24T22:52:14.999Z,7.04
2023-03-24T22:54:41.833Z,7.04
2023-03-24T22:57:08.769Z,6.99
2023-03-24T22:59:35.728Z,7.05
2023-03-24T23:02:09.914Z,7.03
2023-03-24T23:04:37.645Z,6.93
2023-03-24T23:07:06.219Z,7.03
2023-03-24T23:09:34.140Z,6.88
2023-03-24T23:12:01.036Z,6.86
2023-03-24T23:14:27.941Z,6.95
2023-03-24T23:16:56.503Z,6.91
2023-03-24T23:19:23.610Z,6.95
2023-03-24T23:21:50.721Z,6.95
2023-03-24T23:24:17.668Z,6.85
2023-03-24T23:26:44.658Z,6.92
2023-03-24T23:29:11.713Z,6.94
2023-03-24T23:31:40.738Z,6.87
2023-03-24T23:34:11.092Z,6.99
2023-03-24T23:36:39.881Z,6.95
2023-03-24T23:39:06.869Z,6.86
2023-03-24T23:41:33.831Z,6.98
2023-03-24T23:44:00.775Z,6.79
2023-03-24T23:46:27.665Z,6.80
2023-03-24T23:48:54.752Z,6.95
2023-03-24T23:51:22.163Z,6.81
2023-03-24T23:53:49.170Z,6.64
2023-03-24T23:56:16.044Z,6.69
2023-03-24T23:58:43.187Z,6.67
